createdAt,value
2019-02-10T00:00:38.969Z,19.17
2019-02-10T00:01:38.863Z,19.23
2019-02-10T00:02:38.946Z,19.15
2019-02-10T00:03:38.920Z,19.21
2019-02-10T00:04:38.959Z,19.21
2019-02-10T00:05:38.902Z,19.13
2019-02-10T00:06:38.879Z,19.21
2019-02-10T00:07:38.875Z,19.11
2019-02-10T00:08:38.863Z,19.20
2019-02-10T00:09:38.852Z,19.13
2019-02-10T00:10:38.896Z,19.17
2019-02-10T00:11:38.839Z,19.10
2019-02-10T00:12:38.836Z,19.11
2019-02-10T00:13:38.825Z,19.11
2019-02-10T00:14:38.824Z,19.18
2019-02-10T00:15:38.780Z,19.15
2019-02-10T00:16:38.821Z,19.15
2019-02-10T00:17:38.759Z,19.18
2019-02-10T00:18:38.755Z,19.15
2019-02-10T00:19:38.746Z,19.20
2019-02-10T00:20:38.774Z,19.14
2019-02-10T00:21:38.732Z,19.14
2019-02-10T00:22:38.773Z,19.18
2019-02-10T00:23:38.690Z,19.15
2019-02-10T00:24:38.687Z,19.15
2019-02-10T00:25:38.701Z,19.13
2019-02-10T00:26:38.582Z,19.15
2019-02-10T00:27:38.680Z,19.15
2019-02-10T00:28:38.709Z,19.17
2019-02-10T00:29:38.645Z,19.17
2019-02-10T00:30:38.627Z,19.17
2019-02-10T00:31:38.614Z,19.15
2019-02-10T00:32:38.595Z,19.17
2019-02-10T00:33:38.584Z,19.15
2019-02-10T00:34:38.646Z,19.14
2019-02-10T00:35:38.561Z,19.17
2019-02-10T00:36:38.555Z,19.14
2019-02-10T00:37:38.544Z,19.10
2019-02-10T00:38:38.528Z,19.11
2019-02-10T00:39:38.513Z,19.13
2019-02-10T00:40:38.544Z,19.17
2019-02-10T00:41:38.496Z,19.13
2019-02-10T00:42:38.485Z,19.17
2019-02-10T00:43:38.385Z,19.14
2019-02-10T00:44:38.461Z,19.15
2019-02-10T00:45:38.468Z,19.15
2019-02-10T00:46:38.531Z,19.06
2019-02-10T00:47:38.445Z,19.13
2019-02-10T00:48:38.436Z,19.17
2019-02-10T00:49:38.410Z,19.15
2019-02-10T00:50:38.402Z,19.17
2019-02-10T00:51:38.398Z,19.14
2019-02-10T00:52:38.414Z,19.13
2019-02-10T00:53:38.377Z,19.15
2019-02-10T00:54:38.361Z,19.11
2019-02-10T00:55:38.355Z,19.15
2019-02-10T00:56:38.318Z,19.15
2019-02-10T00:57:38.314Z,19.17
2019-02-10T00:58:38.371Z,19.13
2019-02-10T00:59:38.291Z,19.02
2019-02-10T01:00:38.203Z,19.18
2019-02-10T01:01:38.296Z,19.20
2019-02-10T01:02:38.265Z,19.20
2019-02-10T01:03:38.257Z,19.14
2019-02-10T01:04:38.208Z,19.20
2019-02-10T01:05:38.153Z,19.15
2019-02-10T01:06:41.376Z,19.11
2019-02-10T01:07:38.205Z,19.17
2019-02-10T01:08:38.188Z,19.11
2019-02-10T01:09:38.183Z,19.08
2019-02-10T01:10:38.226Z,19.20
2019-02-10T01:11:39.769Z,19.14
2019-02-10T01:12:38.145Z,19.05
2019-02-10T01:13:38.142Z,19.18
2019-02-10T01:14:38.121Z,19.18
2019-02-10T01:15:38.135Z,19.13
2019-02-10T01:16:38.146Z,19.06
2019-02-10T01:17:38.100Z,19.11
2019-02-10T01:18:38.084Z,19.08
2019-02-10T01:19:38.083Z,19.06
2019-02-10T01:20:38.085Z,19.02
2019-02-10T01:21:37.970Z,19.08
2019-02-10T01:22:38.085Z,19.06
2019-02-10T01:23:38.021Z,19.08
2019-02-10T01:24:38.014Z,19.17
2019-02-10T01:25:38.013Z,19.08
2019-02-10T01:26:38.003Z,19.08
2019-02-10T01:27:38.016Z,19.11
2019-02-10T01:28:38.010Z,19.11
2019-02-10T01:29:37.966Z,19.08
2019-02-10T01:30:37.964Z,19.10
2019-02-10T01:31:37.942Z,19.08
2019-02-10T01:32:37.843Z,19.05
2019-02-10T01:33:37.916Z,19.02
2019-02-10T01:34:37.867Z,19.10
2019-02-10T01:35:37.806Z,19.02
2019-02-10T01:36:37.818Z,19.17
2019-02-10T01:37:37.869Z,19.10
2019-02-10T01:38:37.788Z,19.06
2019-02-10T01:39:37.849Z,19.06
2019-02-10T01:40:37.802Z,19.05
2019-02-10T01:41:37.757Z,19.05
2019-02-10T01:42:37.780Z,19.05
2019-02-10T01:43:37.728Z,19.05
2019-02-10T01:44:37.719Z,18.99
2019-02-10T01:45:37.691Z,19.06
2019-02-10T01:46:37.698Z,19.02
2019-02-10T01:47:37.666Z,18.98
2019-02-10T01:48:37.716Z,19.01
2019-02-10T01:49:37.668Z,18.99
2019-02-10T01:50:37.649Z,19.05
2019-02-10T01:51:37.635Z,19.01
2019-02-10T01:52:37.703Z,19.06
2019-02-10T01:53:37.695Z,18.99
2019-02-10T01:54:37.720Z,19.01
2019-02-10T01:55:37.687Z,18.95
2019-02-10T01:56:37.586Z,19.01
2019-02-10T01:57:37.571Z,18.98
2019-02-10T01:58:37.554Z,18.98
2019-02-10T01:59:37.544Z,19.05
2019-02-10T02:00:37.601Z,19.06
2019-02-10T02:01:37.516Z,18.99
2019-02-10T02:02:37.700Z,19.02
2019-02-10T02:03:37.493Z,19.01
2019-02-10T02:04:37.576Z,19.02
2019-02-10T02:05:37.483Z,19.13
2019-02-10T02:06:37.498Z,19.05
2019-02-10T02:07:37.502Z,18.99
2019-02-10T02:08:37.452Z,19.05
2019-02-10T02:09:37.429Z,19.05
2019-02-10T02:10:37.436Z,19.01
2019-02-10T02:11:37.411Z,18.98
2019-02-10T02:12:37.418Z,19.01
2019-02-10T02:13:37.422Z,19.01
2019-02-10T02:14:37.373Z,18.98
2019-02-10T02:15:37.374Z,18.99
2019-02-10T02:16:37.353Z,19.02
2019-02-10T02:17:37.344Z,18.97
2019-02-10T02:18:37.337Z,19.01
2019-02-10T02:19:37.358Z,18.99
2019-02-10T02:20:37.306Z,19.02
2019-02-10T02:21:37.392Z,18.95
2019-02-10T02:22:37.277Z,18.99
2019-02-10T02:23:37.270Z,19.02
2019-02-10T02:24:37.258Z,19.01
2019-02-10T02:25:37.379Z,18.98
2019-02-10T02:26:37.348Z,19.06
2019-02-10T02:27:37.282Z,19.02
2019-02-10T02:28:37.225Z,18.98
2019-02-10T02:29:37.211Z,18.97
2019-02-10T02:30:37.215Z,18.97
2019-02-10T02:31:37.195Z,19.06
2019-02-10T02:32:37.180Z,19.01
2019-02-10T02:33:37.222Z,19.01
2019-02-10T02:34:37.157Z,19.08
2019-02-10T02:35:37.138Z,18.95
2019-02-10T02:36:37.143Z,19.06
2019-02-10T02:37:37.123Z,18.98
2019-02-10T02:38:37.125Z,18.99
2019-02-10T02:39:37.138Z,18.97
2019-02-10T02:40:37.109Z,19.02
2019-02-10T02:41:37.194Z,19.01
2019-02-10T02:42:37.163Z,18.97
2019-02-10T02:43:37.066Z,18.97
2019-02-10T02:44:37.060Z,18.98
2019-02-10T02:45:37.090Z,18.97
2019-02-10T02:46:37.101Z,18.91
2019-02-10T02:47:37.127Z,18.95
2019-02-10T02:48:37.106Z,18.97
2019-02-10T02:49:37.113Z,18.95
2019-02-10T02:50:37.083Z,18.95
2019-02-10T02:51:37.109Z,18.95
2019-02-10T02:52:37.063Z,18.95
2019-02-10T02:53:37.037Z,18.90
2019-02-10T02:54:37.024Z,18.98
2019-02-10T02:55:36.934Z,18.97
2019-02-10T02:56:36.909Z,18.95
2019-02-10T02:57:36.925Z,19.02
2019-02-10T02:58:36.890Z,18.99
2019-02-10T02:59:36.895Z,18.95
2019-02-10T03:00:36.871Z,18.98
2019-02-10T03:01:36.950Z,18.98
2019-02-10T03:02:36.977Z,18.99
2019-02-10T03:03:36.840Z,18.97
2019-02-10T03:04:36.926Z,18.99
2019-02-10T03:05:36.930Z,19.01
2019-02-10T03:06:36.804Z,18.95
2019-02-10T03:07:36.871Z,18.94
2019-02-10T03:08:36.831Z,19.01
2019-02-10T03:09:36.856Z,18.99
2019-02-10T03:10:36.758Z,18.97
2019-02-10T03:11:36.839Z,18.98
2019-02-10T03:12:36.824Z,18.98
2019-02-10T03:13:36.817Z,18.98
2019-02-10T03:14:36.842Z,18.94
2019-02-10T03:15:36.796Z,18.99
2019-02-10T03:16:36.696Z,19.01
2019-02-10T03:17:36.783Z,18.99
2019-02-10T03:18:36.771Z,18.95
2019-02-10T03:19:36.761Z,18.95
2019-02-10T03:20:36.697Z,18.95
2019-02-10T03:21:36.726Z,19.10
2019-02-10T03:22:36.737Z,19.05
2019-02-10T03:23:36.701Z,18.95
2019-02-10T03:24:36.708Z,18.94
2019-02-10T03:25:36.676Z,18.94
2019-02-10T03:26:36.731Z,19.01
2019-02-10T03:27:36.654Z,18.98
2019-02-10T03:28:36.640Z,19.01
2019-02-10T03:29:36.647Z,19.01
2019-02-10T03:30:36.648Z,19.02
2019-02-10T03:31:36.618Z,18.97
2019-02-10T03:32:36.542Z,18.99
2019-02-10T03:33:36.593Z,18.98
2019-02-10T03:34:36.581Z,19.02
2019-02-10T03:35:36.572Z,19.01
2019-02-10T03:36:36.585Z,18.99
2019-02-10T03:37:36.600Z,18.98
2019-02-10T03:38:36.539Z,18.95
2019-02-10T03:39:36.531Z,19.02
2019-02-10T03:40:36.513Z,19.01
2019-02-10T03:41:36.507Z,19.10
2019-02-10T03:42:36.504Z,18.97
2019-02-10T03:43:36.518Z,18.95
2019-02-10T03:44:36.465Z,18.99
2019-02-10T03:45:36.456Z,18.98
2019-02-10T03:46:36.443Z,18.98
2019-02-10T03:47:36.436Z,18.98
2019-02-10T03:48:36.427Z,18.97
2019-02-10T03:49:36.433Z,18.99
2019-02-10T03:50:36.475Z,18.97
2019-02-10T03:51:36.398Z,18.99
2019-02-10T03:52:36.385Z,18.92
2019-02-10T03:53:36.376Z,18.92
2019-02-10T03:54:36.401Z,18.98
2019-02-10T03:55:36.355Z,18.97
2019-02-10T03:56:36.339Z,18.97
2019-02-10T03:57:36.321Z,18.92
2019-02-10T03:58:36.318Z,18.97
2019-02-10T03:59:36.307Z,18.95
2019-02-10T04:00:36.337Z,18.95
2019-02-10T04:01:36.276Z,18.95
2019-02-10T04:02:36.271Z,18.97
2019-02-10T04:03:36.250Z,18.94
2019-02-10T04:04:36.270Z,18.94
2019-02-10T04:05:36.237Z,18.92
2019-02-10T04:06:36.264Z,18.97
2019-02-10T04:07:36.625Z,18.94
2019-02-10T04:08:36.205Z,18.94
2019-02-10T04:09:36.191Z,18.94
2019-02-10T04:10:36.214Z,18.91
2019-02-10T04:11:36.167Z,18.97
2019-02-10T04:12:36.189Z,18.94
2019-02-10T04:13:36.141Z,18.94
2019-02-10T04:14:36.133Z,18.91
2019-02-10T04:15:36.130Z,18.98
2019-02-10T04:16:36.113Z,18.98
2019-02-10T04:17:36.139Z,18.95
2019-02-10T04:18:36.091Z,18.91
2019-02-10T04:19:36.101Z,18.91
2019-02-10T04:20:36.064Z,18.95
2019-02-10T04:21:36.051Z,18.94
2019-02-10T04:22:36.051Z,18.94
2019-02-10T04:23:36.068Z,18.92
2019-02-10T04:24:36.026Z,18.95
2019-02-10T04:25:36.014Z,18.97
2019-02-10T04:26:36.007Z,18.97
2019-02-10T04:27:35.998Z,18.97
2019-02-10T04:28:35.975Z,18.90
2019-02-10T04:29:36.021Z,18.95
2019-02-10T04:30:35.956Z,18.92
2019-02-10T04:31:35.947Z,18.94
2019-02-10T04:32:35.937Z,18.92
2019-02-10T04:33:35.932Z,18.95
2019-02-10T04:34:35.901Z,18.98
2019-02-10T04:35:35.915Z,18.92
2019-02-10T04:36:35.893Z,18.95
2019-02-10T04:37:44.958Z,18.91
2019-02-10T04:38:36.865Z,18.92
2019-02-10T04:39:35.861Z,18.98
2019-02-10T04:40:35.842Z,18.95
2019-02-10T04:41:35.833Z,18.99
2019-02-10T04:42:35.825Z,18.92
2019-02-10T04:43:35.851Z,18.91
2019-02-10T04:44:35.802Z,18.98
2019-02-10T04:45:35.794Z,18.91
2019-02-10T04:46:35.796Z,18.95
2019-02-10T04:47:35.778Z,18.90
2019-02-10T04:48:35.756Z,18.95
2019-02-10T04:49:35.797Z,18.91
2019-02-10T04:50:35.743Z,18.92
2019-02-10T04:51:35.726Z,18.95
2019-02-10T04:52:35.721Z,18.92
2019-02-10T04:53:35.708Z,18.92
2019-02-10T04:54:35.693Z,18.94
2019-02-10T04:55:35.715Z,18.98
2019-02-10T04:56:35.671Z,18.91
2019-02-10T04:57:35.658Z,18.80
2019-02-10T04:58:35.637Z,18.97
2019-02-10T04:59:35.643Z,18.94
2019-02-10T05:00:35.646Z,18.90
2019-02-10T05:01:35.665Z,18.94
2019-02-10T05:02:35.661Z,18.87
2019-02-10T05:03:35.612Z,19.02
2019-02-10T05:04:35.591Z,18.95
2019-02-10T05:05:35.582Z,18.97
2019-02-10T05:06:35.573Z,18.94
2019-02-10T05:07:35.567Z,18.95
2019-02-10T05:08:35.591Z,18.98
2019-02-10T05:09:35.544Z,18.91
2019-02-10T05:10:35.524Z,18.91
2019-02-10T05:11:35.504Z,18.95
2019-02-10T05:12:35.502Z,18.90
2019-02-10T05:13:35.488Z,18.94
2019-02-10T05:14:35.505Z,18.94
2019-02-10T05:15:35.470Z,18.92
2019-02-10T05:16:35.441Z,18.92
2019-02-10T05:17:35.435Z,18.94
2019-02-10T05:18:35.424Z,18.92
2019-02-10T05:19:35.468Z,18.92
2019-02-10T05:20:35.409Z,18.92
2019-02-10T05:21:35.391Z,18.87
2019-02-10T05:22:35.391Z,19.01
2019-02-10T05:23:35.378Z,18.91
2019-02-10T05:24:35.364Z,18.92
2019-02-10T05:25:35.311Z,18.92
2019-02-10T05:26:35.340Z,18.99
2019-02-10T05:27:35.333Z,18.92
2019-02-10T05:28:35.314Z,18.92
2019-02-10T05:29:35.305Z,18.92
2019-02-10T05:30:35.293Z,18.86
2019-02-10T05:31:35.325Z,18.99
2019-02-10T05:32:35.265Z,18.86
2019-02-10T05:33:35.258Z,18.92
2019-02-10T05:34:35.250Z,18.97
2019-02-10T05:35:35.291Z,18.98
2019-02-10T05:36:35.245Z,18.91
2019-02-10T05:37:35.287Z,18.97
2019-02-10T05:38:35.220Z,18.91
2019-02-10T05:39:35.193Z,18.97
2019-02-10T05:40:35.197Z,18.98
2019-02-10T05:41:35.175Z,18.91
2019-02-10T05:42:35.166Z,18.87
2019-02-10T05:43:35.208Z,18.87
2019-02-10T05:44:35.145Z,18.94
2019-02-10T05:45:35.137Z,18.98
2019-02-10T05:46:35.109Z,18.94
2019-02-10T05:47:35.119Z,18.95
2019-02-10T05:48:35.094Z,18.91
2019-02-10T05:49:35.116Z,18.95
2019-02-10T05:50:35.082Z,18.99
2019-02-10T05:51:35.062Z,18.97
2019-02-10T05:52:35.054Z,18.90
2019-02-10T05:53:34.961Z,18.87
2019-02-10T05:54:35.080Z,18.97
2019-02-10T05:55:35.024Z,18.94
2019-02-10T05:56:35.008Z,18.90
2019-02-10T05:57:34.992Z,18.95
2019-02-10T05:58:34.989Z,18.86
2019-02-10T05:59:34.976Z,18.95
2019-02-10T06:00:35.012Z,18.84
2019-02-10T06:01:34.979Z,18.91
2019-02-10T06:02:34.943Z,18.92
2019-02-10T06:03:34.967Z,18.91
2019-02-10T06:04:34.933Z,18.92
2019-02-10T06:05:34.918Z,18.94
2019-02-10T06:06:34.939Z,18.92
2019-02-10T06:07:34.884Z,18.87
2019-02-10T06:08:34.871Z,18.90
2019-02-10T06:09:34.883Z,18.91
2019-02-10T06:10:34.855Z,18.87
2019-02-10T06:11:34.840Z,18.84
2019-02-10T06:12:34.858Z,18.80
2019-02-10T06:13:34.828Z,18.95
2019-02-10T06:14:34.814Z,18.83
2019-02-10T06:15:34.798Z,18.94
2019-02-10T06:16:34.793Z,18.86
2019-02-10T06:17:34.839Z,18.84
2019-02-10T06:18:34.763Z,18.92
2019-02-10T06:19:34.755Z,19.01
2019-02-10T06:20:34.750Z,18.91
2019-02-10T06:21:34.747Z,18.94
2019-02-10T06:22:34.725Z,18.80
2019-02-10T06:23:34.757Z,18.90
2019-02-10T06:24:34.710Z,18.92
2019-02-10T06:25:34.691Z,18.94
2019-02-10T06:26:34.604Z,18.86
2019-02-10T06:27:34.664Z,18.91
2019-02-10T06:28:34.654Z,18.97
2019-02-10T06:29:34.694Z,18.90
2019-02-10T06:30:34.658Z,18.92
2019-02-10T06:31:34.627Z,18.91
2019-02-10T06:32:34.615Z,18.87
2019-02-10T06:33:34.604Z,18.82
2019-02-10T06:34:34.592Z,18.91
2019-02-10T06:35:34.611Z,18.90
2019-02-10T06:36:34.567Z,18.86
2019-02-10T06:37:34.553Z,18.87
2019-02-10T06:38:34.574Z,18.80
2019-02-10T06:39:34.561Z,18.92
2019-02-10T06:40:34.628Z,18.91
2019-02-10T06:41:34.533Z,18.80
2019-02-10T06:42:34.551Z,18.84
2019-02-10T06:43:34.515Z,18.87
2019-02-10T06:44:34.499Z,18.91
2019-02-10T06:45:34.486Z,18.94
2019-02-10T06:46:34.516Z,18.94
2019-02-10T06:47:34.472Z,18.92
2019-02-10T06:48:34.455Z,18.92
2019-02-10T06:49:34.451Z,18.92
2019-02-10T06:50:34.453Z,18.91
2019-02-10T06:51:34.428Z,18.92
2019-02-10T06:52:34.420Z,18.92
2019-02-10T06:53:34.790Z,18.92
2019-02-10T06:54:34.373Z,18.90
2019-02-10T06:55:34.350Z,18.94
2019-02-10T06:56:34.342Z,18.97
2019-02-10T06:57:34.365Z,18.94
2019-02-10T06:58:34.331Z,18.92
2019-02-10T06:59:34.332Z,18.91
2019-02-10T07:00:34.303Z,18.94
2019-02-10T07:01:34.289Z,18.95
2019-02-10T07:02:34.333Z,18.95
2019-02-10T07:03:34.277Z,18.92
2019-02-10T07:04:34.267Z,18.94
2019-02-10T07:05:34.268Z,18.92
2019-02-10T07:06:34.260Z,18.91
2019-02-10T07:07:34.245Z,18.95
2019-02-10T07:08:34.277Z,18.98
2019-02-10T07:09:34.223Z,18.95
2019-02-10T07:10:34.223Z,18.95
2019-02-10T07:11:34.211Z,18.94
2019-02-10T07:12:34.186Z,19.02
2019-02-10T07:13:34.164Z,18.94
2019-02-10T07:14:34.205Z,18.94
2019-02-10T07:15:34.142Z,18.94
2019-02-10T07:16:34.129Z,19.02
2019-02-10T07:17:34.119Z,18.97
2019-02-10T07:18:34.109Z,18.95
2019-02-10T07:19:34.095Z,19.06
2019-02-10T07:20:34.126Z,18.97
2019-02-10T07:21:34.071Z,19.01
2019-02-10T07:22:34.068Z,19.11
2019-02-10T07:23:33.956Z,18.99
2019-02-10T07:24:33.963Z,18.99
2019-02-10T07:25:33.940Z,18.95
2019-02-10T07:26:33.960Z,19.01
2019-02-10T07:27:33.931Z,19.01
2019-02-10T07:28:33.915Z,18.95
2019-02-10T07:29:33.894Z,18.98
2019-02-10T07:30:33.890Z,18.99
2019-02-10T07:31:33.880Z,19.06
2019-02-10T07:32:33.995Z,18.99
2019-02-10T07:33:33.953Z,19.08
2019-02-10T07:34:33.837Z,19.06
2019-02-10T07:35:33.848Z,19.02
2019-02-10T07:36:33.849Z,19.06
2019-02-10T07:37:33.863Z,19.14
2019-02-10T07:38:38.622Z,19.13
2019-02-10T07:39:34.872Z,19.13
2019-02-10T07:40:33.819Z,19.20
2019-02-10T07:41:33.878Z,19.14
2019-02-10T07:42:33.765Z,19.08
2019-02-10T07:43:33.883Z,19.15
2019-02-10T07:44:33.814Z,19.20
2019-02-10T07:45:33.729Z,19.13
2019-02-10T07:46:33.721Z,19.17
2019-02-10T07:47:33.718Z,19.17
2019-02-10T07:48:33.851Z,19.14
2019-02-10T07:49:33.750Z,19.18
2019-02-10T07:50:33.665Z,19.15
2019-02-10T07:51:33.670Z,19.20
2019-02-10T07:52:33.656Z,19.20
2019-02-10T07:53:33.731Z,19.23
2019-02-10T07:54:41.954Z,19.21
2019-02-10T07:55:34.685Z,19.18
2019-02-10T07:56:33.689Z,19.21
2019-02-10T07:57:33.697Z,19.23
2019-02-10T07:58:33.718Z,19.17
2019-02-10T07:59:33.665Z,19.17
2019-02-10T08:00:33.558Z,19.23
2019-02-10T08:01:33.691Z,19.21
2019-02-10T08:02:33.632Z,19.28
2019-02-10T08:03:33.642Z,19.33
2019-02-10T08:04:33.619Z,19.35
2019-02-10T08:05:33.605Z,19.39
2019-02-10T08:06:33.493Z,19.39
2019-02-10T08:07:33.621Z,19.36
2019-02-10T08:08:33.482Z,19.36
2019-02-10T08:09:33.475Z,19.47
2019-02-10T08:10:33.464Z,19.54
2019-02-10T08:11:33.433Z,19.48
2019-02-10T08:12:33.430Z,19.43
2019-02-10T08:13:33.446Z,19.54
2019-02-10T08:14:33.409Z,19.51
2019-02-10T08:15:33.403Z,19.55
2019-02-10T08:16:33.396Z,19.57
2019-02-10T08:17:33.372Z,19.60
2019-02-10T08:18:33.403Z,19.55
2019-02-10T08:19:33.351Z,19.68
2019-02-10T08:20:33.349Z,19.70
2019-02-10T08:21:33.332Z,19.76
2019-02-10T08:22:33.310Z,19.76
2019-02-10T08:23:33.409Z,19.78
2019-02-10T08:24:33.423Z,19.72
2019-02-10T08:25:33.297Z,19.70
2019-02-10T08:26:33.378Z,19.73
2019-02-10T08:27:33.345Z,19.73
2019-02-10T08:28:33.254Z,19.75
2019-02-10T08:29:33.289Z,19.83
2019-02-10T08:30:33.224Z,19.84
2019-02-10T08:31:33.197Z,19.87
2019-02-10T08:32:33.208Z,19.93
2019-02-10T08:33:33.446Z,19.91
2019-02-10T08:34:33.171Z,19.97
2019-02-10T08:35:33.198Z,19.97
2019-02-10T08:36:33.165Z,20.02
2019-02-10T08:37:33.157Z,20.02
2019-02-10T08:38:33.150Z,20.00
2019-02-10T08:39:33.133Z,20.02
2019-02-10T08:40:33.108Z,20.00
2019-02-10T08:41:33.128Z,20.02
2019-02-10T08:42:33.073Z,20.03
2019-02-10T08:43:33.087Z,20.05
2019-02-10T08:44:33.055Z,19.98
2019-02-10T08:45:33.068Z,20.03
2019-02-10T08:46:33.048Z,19.97
2019-02-10T08:47:33.928Z,20.09
2019-02-10T08:48:33.029Z,20.08
2019-02-10T08:49:33.010Z,20.12
2019-02-10T08:50:33.003Z,20.12
2019-02-10T08:51:33.035Z,20.09
2019-02-10T08:52:32.999Z,20.15
2019-02-10T08:53:32.975Z,20.09
2019-02-10T08:54:32.966Z,20.09
2019-02-10T08:55:32.942Z,20.13
2019-02-10T08:56:32.981Z,20.21
2019-02-10T08:57:33.068Z,20.18
2019-02-10T08:58:32.908Z,20.21
2019-02-10T08:59:32.930Z,20.27
2019-02-10T09:00:32.895Z,20.24
2019-02-10T09:01:32.887Z,20.27
2019-02-10T09:02:32.914Z,20.33
2019-02-10T09:03:32.868Z,20.38
2019-02-10T09:04:32.847Z,20.39
2019-02-10T09:05:32.826Z,20.43
2019-02-10T09:06:32.832Z,20.41
2019-02-10T09:07:32.806Z,20.46
2019-02-10T09:08:32.820Z,20.47
2019-02-10T09:09:32.851Z,20.43
2019-02-10T09:10:32.788Z,20.49
2019-02-10T09:11:32.774Z,20.50
2019-02-10T09:12:32.743Z,20.50
2019-02-10T09:13:32.740Z,20.50
2019-02-10T09:14:32.733Z,20.64
2019-02-10T09:15:32.759Z,20.62
2019-02-10T09:16:32.707Z,20.71
2019-02-10T09:17:32.696Z,20.71
2019-02-10T09:18:32.686Z,20.64
2019-02-10T09:19:32.707Z,20.56
2019-02-10T09:20:32.673Z,20.71
2019-02-10T09:21:32.726Z,20.64
2019-02-10T09:22:32.647Z,20.77
2019-02-10T09:23:32.622Z,20.71
2019-02-10T09:24:32.624Z,20.72
2019-02-10T09:25:32.631Z,20.68
2019-02-10T09:26:32.620Z,20.79
2019-02-10T09:27:32.669Z,20.76
2019-02-10T09:28:32.571Z,20.87
2019-02-10T09:29:32.564Z,20.93
2019-02-10T09:30:32.549Z,20.87
2019-02-10T09:31:33.238Z,20.89
2019-02-10T09:32:32.528Z,20.99
2019-02-10T09:33:32.556Z,20.95
2019-02-10T09:34:32.510Z,21.01
2019-02-10T09:35:32.511Z,21.02
2019-02-10T09:36:32.486Z,21.02
2019-02-10T09:37:32.471Z,20.95
2019-02-10T09:38:32.466Z,21.14
2019-02-10T09:39:32.494Z,21.14
2019-02-10T09:40:32.449Z,21.11
2019-02-10T09:41:32.427Z,21.09
2019-02-10T09:42:32.430Z,21.16
2019-02-10T09:43:32.417Z,21.19
2019-02-10T09:44:32.393Z,21.26
2019-02-10T09:45:32.437Z,21.21
2019-02-10T09:46:32.360Z,21.19
2019-02-10T09:47:32.365Z,21.32
2019-02-10T09:48:32.347Z,21.30
2019-02-10T09:49:32.350Z,21.38
2019-02-10T09:50:32.325Z,21.36
2019-02-10T09:51:32.337Z,21.38
2019-02-10T09:52:32.310Z,21.45
2019-02-10T09:53:32.290Z,21.50
2019-02-10T09:54:32.286Z,21.45
2019-02-10T09:55:32.269Z,21.44
2019-02-10T09:56:32.321Z,21.54
2019-02-10T09:57:32.251Z,21.46
2019-02-10T09:58:32.246Z,21.48
2019-02-10T09:59:32.228Z,21.56
2019-02-10T10:00:32.224Z,21.50
2019-02-10T10:01:32.206Z,21.51
2019-02-10T10:02:32.232Z,21.51
2019-02-10T10:03:32.184Z,21.56
2019-02-10T10:04:32.180Z,21.59
2019-02-10T10:05:32.168Z,21.56
2019-02-10T10:06:32.165Z,21.56
2019-02-10T10:07:32.144Z,21.53
2019-02-10T10:08:32.199Z,21.61
2019-02-10T10:09:32.127Z,21.64
2019-02-10T10:10:32.121Z,21.66
2019-02-10T10:11:32.108Z,21.67
2019-02-10T10:12:32.082Z,21.74
2019-02-10T10:13:32.087Z,21.72
2019-02-10T10:14:32.113Z,21.72
2019-02-10T10:15:32.043Z,21.75
2019-02-10T10:16:32.043Z,21.78
2019-02-10T10:17:32.045Z,21.78
2019-02-10T10:18:32.012Z,21.79
2019-02-10T10:19:32.002Z,21.74
2019-02-10T10:20:32.065Z,21.76
2019-02-10T10:21:31.997Z,21.71
2019-02-10T10:22:31.975Z,21.81
2019-02-10T10:23:31.970Z,21.81
2019-02-10T10:24:31.970Z,21.72
2019-02-10T10:25:31.946Z,21.78
2019-02-10T10:26:32.036Z,21.82
2019-02-10T10:27:31.926Z,21.91
2019-02-10T10:28:31.928Z,21.82
2019-02-10T10:29:31.906Z,21.81
2019-02-10T10:30:31.878Z,21.83
2019-02-10T10:31:31.866Z,21.82
2019-02-10T10:32:31.900Z,21.79
2019-02-10T10:33:32.067Z,21.90
2019-02-10T10:34:31.838Z,21.90
2019-02-10T10:35:31.825Z,21.85
2019-02-10T10:36:31.827Z,21.85
2019-02-10T10:37:31.819Z,21.90
2019-02-10T10:38:31.832Z,21.92
2019-02-10T10:39:31.787Z,21.88
2019-02-10T10:40:31.771Z,22.02
2019-02-10T10:41:31.760Z,21.98
2019-02-10T10:42:31.764Z,21.97
2019-02-10T10:43:31.764Z,22.06
2019-02-10T10:44:31.772Z,21.98
2019-02-10T10:45:31.711Z,22.04
2019-02-10T10:46:31.724Z,22.09
2019-02-10T10:47:31.707Z,22.04
2019-02-10T10:48:31.706Z,22.14
2019-02-10T10:49:31.689Z,22.25
2019-02-10T10:50:31.722Z,22.27
2019-02-10T10:51:31.675Z,22.34
2019-02-10T10:52:31.645Z,22.29
2019-02-10T10:53:31.644Z,22.27
2019-02-10T10:54:31.626Z,22.27
2019-02-10T10:55:31.627Z,22.19
2019-02-10T10:56:31.681Z,22.23
2019-02-10T10:57:31.606Z,22.37
2019-02-10T10:58:31.590Z,22.41
2019-02-10T10:59:31.587Z,22.22
2019-02-10T11:00:31.566Z,22.39
2019-02-10T11:01:31.546Z,22.39
2019-02-10T11:02:31.556Z,22.44
2019-02-10T11:03:31.526Z,22.43
2019-02-10T11:04:31.557Z,22.50
2019-02-10T11:05:31.519Z,22.49
2019-02-10T11:06:31.503Z,22.53
2019-02-10T11:07:31.491Z,22.54
2019-02-10T11:08:31.467Z,22.62
2019-02-10T11:09:35.558Z,22.54
2019-02-10T11:10:31.496Z,22.49
2019-02-10T11:11:31.423Z,22.47
2019-02-10T11:12:31.410Z,22.39
2019-02-10T11:13:31.409Z,22.43
2019-02-10T11:14:31.408Z,22.35
2019-02-10T11:15:31.377Z,22.39
2019-02-10T11:16:31.418Z,22.39
2019-02-10T11:17:31.366Z,22.44
2019-02-10T11:18:31.366Z,22.43
2019-02-10T11:19:31.347Z,22.43
2019-02-10T11:20:31.326Z,22.49
2019-02-10T11:21:31.422Z,22.44
2019-02-10T11:22:31.357Z,22.39
2019-02-10T11:23:31.314Z,22.38
2019-02-10T11:24:31.310Z,22.39
2019-02-10T11:25:31.294Z,22.35
2019-02-10T11:26:31.266Z,22.31
2019-02-10T11:27:31.254Z,22.27
2019-02-10T11:28:31.281Z,22.20
2019-02-10T11:29:31.235Z,22.13
2019-02-10T11:30:31.226Z,22.12
2019-02-10T11:31:31.199Z,22.13
2019-02-10T11:32:31.252Z,22.09
2019-02-10T11:33:31.186Z,22.02
2019-02-10T11:34:31.231Z,22.02
2019-02-10T11:35:31.175Z,22.04
2019-02-10T11:36:31.156Z,22.06
2019-02-10T11:37:31.212Z,21.99
2019-02-10T11:38:31.124Z,22.04
2019-02-10T11:39:31.144Z,22.06
2019-02-10T11:40:31.167Z,22.01
2019-02-10T11:41:31.114Z,21.95
2019-02-10T11:42:31.101Z,21.95
2019-02-10T11:43:31.056Z,21.88
2019-02-10T11:44:31.081Z,21.92
2019-02-10T11:45:31.046Z,21.81
2019-02-10T11:46:31.059Z,21.91
2019-02-10T11:47:31.029Z,21.91
2019-02-10T11:48:31.056Z,21.94
2019-02-10T11:49:31.092Z,21.98
2019-02-10T11:50:31.005Z,21.94
2019-02-10T11:51:30.987Z,21.88
2019-02-10T11:52:30.989Z,21.94
2019-02-10T11:53:30.959Z,21.85
2019-02-10T11:54:30.967Z,21.79
2019-02-10T11:55:31.007Z,21.76
2019-02-10T11:56:30.930Z,21.71
2019-02-10T11:57:30.986Z,21.72
2019-02-10T11:58:30.905Z,21.82
2019-02-10T11:59:30.904Z,21.74
2019-02-10T12:00:30.888Z,21.71
2019-02-10T12:01:30.912Z,21.67
2019-02-10T12:02:37.844Z,21.69
2019-02-10T12:03:31.857Z,21.60
2019-02-10T12:04:30.846Z,21.64
2019-02-10T12:05:30.821Z,21.61
2019-02-10T12:06:30.827Z,21.59
2019-02-10T12:07:30.862Z,21.57
2019-02-10T12:08:35.733Z,21.54
2019-02-10T12:09:31.787Z,21.54
2019-02-10T12:10:30.784Z,21.56
2019-02-10T12:11:30.768Z,21.45
2019-02-10T12:12:30.774Z,21.53
2019-02-10T12:13:30.787Z,21.46
2019-02-10T12:14:30.746Z,21.42
2019-02-10T12:15:30.729Z,21.45
2019-02-10T12:16:30.726Z,21.51
2019-02-10T12:17:30.714Z,21.45
2019-02-10T12:18:30.748Z,21.48
2019-02-10T12:19:30.763Z,21.50
2019-02-10T12:20:30.691Z,21.45
2019-02-10T12:21:30.666Z,21.41
2019-02-10T12:22:30.714Z,21.45
2019-02-10T12:23:30.650Z,21.54
2019-02-10T12:24:30.788Z,21.46
2019-02-10T12:25:30.735Z,21.45
2019-02-10T12:26:30.635Z,21.46
2019-02-10T12:27:30.703Z,21.54
2019-02-10T12:28:30.695Z,21.60
2019-02-10T12:29:30.679Z,21.60
2019-02-10T12:30:30.714Z,21.56
2019-02-10T12:31:30.597Z,21.57
2019-02-10T12:32:30.565Z,21.60
2019-02-10T12:33:30.542Z,21.50
2019-02-10T12:34:30.540Z,21.63
2019-02-10T12:35:30.619Z,21.63
2019-02-10T12:36:30.604Z,21.69
2019-02-10T12:37:32.570Z,21.69
2019-02-10T12:38:30.605Z,21.71
2019-02-10T12:39:30.559Z,21.71
2019-02-10T12:40:30.585Z,21.76
2019-02-10T12:41:30.605Z,21.75
2019-02-10T12:42:30.528Z,21.71
2019-02-10T12:43:30.432Z,21.76
2019-02-10T12:44:30.511Z,21.79
2019-02-10T12:45:30.521Z,21.83
2019-02-10T12:46:30.506Z,21.85
2019-02-10T12:47:30.517Z,21.95
2019-02-10T12:48:30.504Z,22.01
2019-02-10T12:49:30.475Z,22.29
2019-02-10T12:50:30.470Z,22.25
2019-02-10T12:51:30.441Z,22.27
2019-02-10T12:52:30.440Z,22.25